Time;durP1;ratioP1;P1;durP2;ratioP2;P2;SDS_P1;SDS_P2;PMS_P1;PMS_P2;Temp;Humidity;BMP_temperature;BMP_pressure;BME280_temperature;BME280_humidity;BME280_pressure;Samples;Min_cycle;Max_cycle;Signal;HPM_P1;HPM_P2
2020/12/13 00:02:19;;;;;;;44.93;21.50;;;5.60;99.90;;;;;;5046629;28;20486;-96
2020/12/13 00:04:47;;;;;;;40.10;21.37;;;5.50;99.90;;;;;;5046378;28;20455;-96
2020/12/13 00:07:16;;;;;;;40.40;20.63;;;5.50;99.90;;;;;;5044735;28;20490;-96
2020/12/13 00:12:29;;;;;;;43.60;22.13;;;5.60;99.90;;;;;;5041492;28;20448;-96
2020/12/13 00:17:47;;;;;;;42.77;21.30;;;5.60;99.90;;;;;;5041059;28;20459;-96
2020/12/13 00:20:15;;;;;;;40.33;20.57;;;5.60;99.90;;;;;;5048025;28;20599;-96
2020/12/13 00:22:41;;;;;;;37.63;19.57;;;5.60;99.90;;;;;;5046769;28;20483;-96
2020/12/13 00:25:09;;;;;;;41.70;21.17;;;5.60;99.90;;;;;;5046369;28;20452;-96
2020/12/13 00:27:40;;;;;;;39.27;21.27;;;5.60;99.90;;;;;;5048054;28;20491;-96
2020/12/13 00:32:49;;;;;;;46.57;21.63;;;5.40;99.90;;;;;;5070695;28;20478;-96
2020/12/13 00:37:59;;;;;;;41.83;20.67;;;5.40;99.90;;;;;;5043307;28;20447;-96
2020/12/13 00:40:26;;;;;;;41.70;19.87;;;5.40;99.90;;;;;;5056771;28;20451;-96
2020/12/13 00:43:21;;;;;;;41.10;20.80;;;5.50;99.90;;;;;;5053805;28;20451;-96
2020/12/13 00:46:00;;;;;;;37.23;18.63;;;5.50;99.90;;;;;;5050645;28;20789;-96
2020/12/13 00:48:30;;;;;;;39.53;19.30;;;5.50;99.90;;;;;;5041458;28;20470;-96
2020/12/13 00:51:10;;;;;;;41.60;20.30;;;5.50;99.90;;;;;;5060740;28;20435;-96
2020/12/13 00:53:37;;;;;;;39.10;19.13;;;5.60;99.90;;;;;;5054553;28;20479;-96
2020/12/13 00:56:07;;;;;;;40.87;19.30;;;5.60;99.90;;;;;;5043204;28;20527;-96
2020/12/13 00:58:50;;;;;;;36.07;19.70;;;5.60;99.90;;;;;;5060393;28;20444;-96
2020/12/13 01:01:18;;;;;;;38.47;20.17;;;5.60;99.90;;;;;;5057053;28;20455;-96
2020/12/13 01:03:51;;;;;;;36.70;18.47;;;5.60;99.90;;;;;;5060736;28;20459;-96
2020/12/13 01:06:23;;;;;;;40.00;19.67;;;5.60;99.90;;;;;;5060062;28;20476;-96
2020/12/13 01:08:55;;;;;;;41.17;18.93;;;5.60;99.90;;;;;;5060040;28;20475;-96
2020/12/13 01:11:28;;;;;;;37.90;18.53;;;5.70;99.90;;;;;;5060209;28;20443;-96
2020/12/13 01:13:57;;;;;;;36.30;19.23;;;5.70;99.90;;;;;;5058877;28;20490;-96
2020/12/13 01:19:10;;;;;;;38.57;18.80;;;5.60;99.90;;;;;;5048394;28;20459;-96
2020/12/13 01:24:19;;;;;;;37.93;18.60;;;5.50;99.90;;;;;;5055460;28;20447;-96
2020/12/13 01:26:46;;;;;;;38.20;18.77;;;5.50;99.90;;;;;;5057691;28;20470;-96
2020/12/13 01:29:44;;;;;;;33.70;18.30;;;5.60;99.90;;;;;;5059562;28;20483;-96
2020/12/13 01:35:30;;;;;;;39.67;18.80;;;5.70;99.90;;;;;;5047959;28;20455;-96
2020/12/13 01:37:57;;;;;;;34.03;18.07;;;5.60;99.90;;;;;;5044085;28;20440;-96
2020/12/13 01:40:25;;;;;;;40.70;19.90;;;5.70;99.90;;;;;;5058917;28;20451;-96
2020/12/13 01:42:53;;;;;;;33.87;18.17;;;5.60;99.90;;;;;;5054899;28;20482;-96
2020/12/13 01:53:57;;;;;;;33.63;17.23;;;5.80;99.90;;;;;;5049564;28;20479;-96
2020/12/13 01:56:26;;;;;;;34.20;18.47;;;5.80;99.90;;;;;;5037168;28;20507;-96
2020/12/13 01:59:00;;;;;;;33.27;18.17;;;5.80;99.90;;;;;;5062065;22;20492;-96
2020/12/13 02:01:36;;;;;;;34.87;18.10;;;5.70;99.90;;;;;;5017868;28;20461;-96
2020/12/13 02:06:52;;;;;;;37.37;18.93;;;5.80;99.90;;;;;;5079100;23;20496;-96
2020/12/13 02:12:38;;;;;;;35.10;17.83;;;5.70;99.90;;;;;;5041256;28;20985;-97
2020/12/13 02:15:06;;;;;;;32.60;17.40;;;5.70;99.90;;;;;;5042782;28;20571;-96
2020/12/13 02:17:36;;;;;;;34.73;18.07;;;5.70;99.90;;;;;;5038703;28;20444;-96
2020/12/13 02:20:08;;;;;;;40.27;18.30;;;5.70;99.90;;;;;;5038734;28;20472;-96
2020/12/13 02:22:49;;;;;;;33.63;17.60;;;5.60;99.90;;;;;;5038577;28;20445;-96
2020/12/13 02:28:01;;;;;;;34.90;17.57;;;5.60;99.90;;;;;;5038454;28;20452;-96
2020/12/13 02:35:52;;;;;;;34.63;17.50;;;5.60;99.90;;;;;;5037606;28;20453;-96
2020/12/13 02:41:19;;;;;;;33.47;18.00;;;5.60;99.90;;;;;;5046693;28;20479;-96
2020/12/13 02:43:50;;;;;;;34.43;17.70;;;5.60;99.90;;;;;;5018534;28;20464;-96
2020/12/13 02:46:20;;;;;;;37.23;18.73;;;5.60;99.90;;;;;;5042840;28;20455;-96
2020/12/13 02:51:30;;;;;;;30.30;15.70;;;5.50;99.90;;;;;;5033264;28;20444;-96
2020/12/13 02:57:18;;;;;;;36.10;17.90;;;5.50;99.90;;;;;;5045495;28;20474;-96
2020/12/13 02:59:44;;;;;;;33.53;17.73;;;5.40;99.90;;;;;;5053435;28;20462;-96
2020/12/13 03:02:12;;;;;;;33.20;16.47;;;5.40;99.90;;;;;;5032905;28;20452;-96
2020/12/13 03:04:38;;;;;;;36.40;16.40;;;5.50;99.90;;;;;;5033212;28;20532;-96
2020/12/13 03:07:08;;;;;;;34.77;17.60;;;5.40;99.90;;;;;;5012382;28;20884;-96
2020/12/13 03:09:45;;;;;;;35.47;17.57;;;5.40;99.90;;;;;;5014445;28;20501;-96
2020/12/13 03:12:15;;;;;;;38.30;18.77;;;5.40;99.90;;;;;;5033376;28;20449;-96
2020/12/13 03:17:24;;;;;;;34.30;17.73;;;5.30;99.90;;;;;;5035823;28;20467;-96
2020/12/13 03:19:50;;;;;;;32.57;18.50;;;5.30;99.90;;;;;;5031921;28;20459;-96
2020/12/13 03:24:59;;;;;;;34.87;18.20;;;5.30;99.90;;;;;;5030863;28;20448;-96
2020/12/13 03:27:27;;;;;;;35.70;18.90;;;5.30;99.90;;;;;;5039638;28;20511;-96
2020/12/13 03:29:54;;;;;;;33.00;17.00;;;5.20;99.90;;;;;;5039819;28;20503;-96
2020/12/13 03:32:23;;;;;;;39.10;18.03;;;5.30;99.90;;;;;;5032182;28;20464;-96
2020/12/13 03:37:35;;;;;;;36.70;17.47;;;5.30;99.90;;;;;;5026020;28;20511;-96
2020/12/13 03:40:03;;;;;;;34.57;17.17;;;5.40;99.90;;;;;;5031818;28;20462;-96
2020/12/13 03:47:54;;;;;;;32.10;17.40;;;5.40;99.90;;;;;;5037290;28;20496;-96
2020/12/13 03:50:38;;;;;;;34.07;17.80;;;5.50;99.90;;;;;;5047282;28;20451;-96
2020/12/13 03:53:10;;;;;;;38.37;17.43;;;5.40;99.90;;;;;;5038351;28;20515;-96
2020/12/13 03:55:38;;;;;;;30.00;16.53;;;5.50;99.90;;;;;;5037457;28;20440;-96
2020/12/13 03:58:08;;;;;;;34.27;17.17;;;5.40;99.90;;;;;;5037635;28;20464;-96
2020/12/13 04:00:36;;;;;;;33.50;16.87;;;5.40;99.90;;;;;;5037642;28;20440;-96
2020/12/13 04:03:05;;;;;;;34.90;18.10;;;5.40;99.90;;;;;;5049399;28;20474;-96
2020/12/13 04:05:32;;;;;;;32.73;17.70;;;5.40;99.90;;;;;;5050994;28;20672;-96
2020/12/13 04:08:00;;;;;;;35.43;17.23;;;5.50;99.90;;;;;;5035669;28;20551;-96
2020/12/13 04:10:29;;;;;;;33.07;17.50;;;5.40;99.90;;;;;;5032458;28;20487;-96
2020/12/13 04:16:09;;;;;;;34.90;17.80;;;5.40;99.90;;;;;;5049476;28;20448;-96
2020/12/13 04:18:48;;;;;;;33.63;16.77;;;5.40;99.90;;;;;;5032762;28;20475;-96
2020/12/13 04:21:19;;;;;;;32.83;16.63;;;5.40;99.90;;;;;;5032924;28;20539;-96
2020/12/13 04:23:46;;;;;;;33.73;17.47;;;5.40;99.90;;;;;;5037134;28;20458;-96
2020/12/13 04:26:13;;;;;;;35.63;17.23;;;5.40;99.90;;;;;;5041344;28;20488;-96
2020/12/13 04:28:41;;;;;;;35.53;18.10;;;5.30;99.90;;;;;;5031721;28;20583;-95
2020/12/13 04:34:14;;;;;;;36.33;17.43;;;5.40;99.90;;;;;;5046898;28;20478;-96
2020/12/13 04:36:41;;;;;;;34.13;16.03;;;5.30;99.90;;;;;;5031177;28;21182;-95
2020/12/13 04:39:10;;;;;;;34.40;16.90;;;5.20;99.90;;;;;;5027645;28;20476;-96
2020/12/13 04:41:39;;;;;;;34.47;17.60;;;5.30;99.90;;;;;;5041960;28;20475;-96
2020/12/13 04:44:06;;;;;;;33.73;16.97;;;5.20;99.90;;;;;;5043804;28;20526;-96
2020/12/13 04:46:41;;;;;;;36.17;18.17;;;5.20;99.90;;;;;;5035006;28;20459;-96
2020/12/13 04:49:09;;;;;;;35.70;17.20;;;5.20;99.90;;;;;;5034376;28;20499;-96
2020/12/13 04:54:23;;;;;;;31.83;16.27;;;5.20;99.90;;;;;;5026779;28;20528;-96
2020/12/13 04:56:55;;;;;;;34.27;18.03;;;5.30;99.90;;;;;;5033550;28;20477;-96
2020/12/13 04:59:22;;;;;;;33.27;17.33;;;5.30;99.90;;;;;;5049919;28;20522;-96
2020/12/13 05:01:50;;;;;;;33.93;16.60;;;5.30;99.90;;;;;;5029617;28;20456;-96
2020/12/13 05:04:19;;;;;;;31.47;16.17;;;5.40;99.90;;;;;;5028352;28;20456;-96
2020/12/13 05:06:47;;;;;;;35.00;18.37;;;5.40;99.90;;;;;;5027749;28;20510;-96
2020/12/13 05:09:15;;;;;;;34.33;17.50;;;5.40;99.90;;;;;;5026435;28;20546;-96
2020/12/13 05:11:45;;;;;;;34.33;16.63;;;5.50;99.90;;;;;;5014897;28;20458;-96
2020/12/13 05:14:13;;;;;;;33.03;17.20;;;5.50;99.90;;;;;;5045758;28;20458;-96
2020/12/13 05:16:47;;;;;;;29.60;16.70;;;5.40;99.90;;;;;;5039260;28;20530;-96
2020/12/13 05:22:01;;;;;;;36.20;17.70;;;5.40;99.90;;;;;;5041430;28;20478;-96
2020/12/13 05:24:31;;;;;;;37.33;17.67;;;5.40;99.90;;;;;;5044465;28;20456;-96
2020/12/13 05:27:00;;;;;;;35.20;17.77;;;5.40;99.90;;;;;;5033460;28;20459;-96
2020/12/13 05:29:36;;;;;;;35.53;17.37;;;5.30;99.90;;;;;;5049133;28;20491;-96
2020/12/13 05:32:10;;;;;;;35.23;17.53;;;5.30;99.90;;;;;;5031958;28;20480;-96
2020/12/13 05:37:23;;;;;;;32.40;16.43;;;5.30;99.90;;;;;;5026180;28;20451;-96
2020/12/13 05:39:51;;;;;;;32.27;16.70;;;5.30;99.90;;;;;;5025235;28;20468;-96
2020/12/13 05:42:34;;;;;;;38.73;18.90;;;5.30;99.90;;;;;;5026928;28;20947;-96
2020/12/13 05:53:34;;;;;;;35.77;16.17;;;5.20;99.90;;;;;;5019219;28;20454;-96
2020/12/13 05:56:12;;;;;;;35.27;17.83;;;5.20;99.90;;;;;;5047029;28;20470;-96
2020/12/13 05:58:40;;;;;;;33.63;16.70;;;5.20;99.90;;;;;;5047693;28;20462;-96
2020/12/13 06:03:50;;;;;;;37.60;18.07;;;5.20;99.90;;;;;;5046647;28;20468;-96
2020/12/13 06:09:32;;;;;;;37.03;17.10;;;5.10;99.90;;;;;;5025788;28;22246;-96
2020/12/13 06:12:03;;;;;;;37.73;18.30;;;5.10;99.90;;;;;;5041516;28;20531;-96
2020/12/13 06:14:36;;;;;;;34.97;19.20;;;5.20;99.90;;;;;;5042210;28;20725;-96
2020/12/13 06:22:27;;;;;;;37.87;19.33;;;5.30;99.90;;;;;;5048566;28;20479;-96
2020/12/13 06:24:54;;;;;;;37.40;17.63;;;5.20;99.90;;;;;;5034732;28;20498;-96
2020/12/13 06:27:25;;;;;;;37.93;17.97;;;5.30;99.90;;;;;;5026135;28;20543;-96
2020/12/13 06:29:56;;;;;;;36.90;18.33;;;5.30;99.90;;;;;;5023363;28;20496;-96
2020/12/13 06:32:26;;;;;;;38.30;19.17;;;5.30;99.90;;;;;;5037340;28;20807;-96
2020/12/13 06:34:56;;;;;;;42.57;19.70;;;5.20;99.90;;;;;;5005091;28;20480;-96
2020/12/13 06:37:23;;;;;;;37.73;19.07;;;5.30;99.90;;;;;;5008653;28;20883;-96
2020/12/13 06:39:50;;;;;;;41.37;19.53;;;5.20;99.90;;;;;;5016587;28;20463;-96
2020/12/13 06:45:45;;;;;;;36.30;17.77;;;5.30;99.90;;;;;;5040913;28;20444;-96
2020/12/13 06:48:21;;;;;;;41.17;20.03;;;5.30;99.90;;;;;;5020856;28;20459;-96
2020/12/13 06:50:47;;;;;;;42.90;19.50;;;5.20;99.90;;;;;;5088130;22;20587;-96
2020/12/13 06:53:16;;;;;;;39.47;19.40;;;5.20;99.90;;;;;;5021068;28;20463;-94
2020/12/13 06:55:43;;;;;;;43.93;21.20;;;5.20;99.90;;;;;;5004485;28;20491;-94
2020/12/13 06:58:11;;;;;;;44.67;19.70;;;5.20;99.90;;;;;;4999887;28;20449;-95
2020/12/13 07:00:49;;;;;;;40.50;19.23;;;5.30;99.90;;;;;;5000534;28;20465;-94
2020/12/13 07:03:26;;;;;;;39.40;19.80;;;5.40;99.90;;;;;;5000769;28;20458;-95
2020/12/13 07:05:55;;;;;;;42.33;19.40;;;5.20;99.90;;;;;;5000131;28;20456;-95
2020/12/13 07:08:24;;;;;;;40.00;19.77;;;5.20;99.90;;;;;;5010643;28;20466;-94
2020/12/13 07:10:52;;;;;;;41.97;19.40;;;5.30;99.90;;;;;;5029680;28;20521;-94
2020/12/13 07:13:22;;;;;;;39.13;20.33;;;5.30;99.90;;;;;;5021992;28;20567;-94
2020/12/13 07:15:52;;;;;;;41.63;20.47;;;5.30;99.90;;;;;;5009113;28;21145;-95
2020/12/13 07:18:22;;;;;;;45.83;21.03;;;5.20;99.90;;;;;;5005499;28;20462;-94
2020/12/13 07:20:48;;;;;;;41.10;20.20;;;5.30;99.90;;;;;;5009146;28;20457;-93
2020/12/13 07:23:15;;;;;;;44.13;20.37;;;5.30;99.90;;;;;;5012575;28;20477;-94
2020/12/13 07:25:41;;;;;;;38.80;18.70;;;5.40;99.90;;;;;;5010747;28;20453;-95
2020/12/13 07:28:09;;;;;;;45.37;19.63;;;5.30;99.90;;;;;;5000953;28;20944;-95
2020/12/13 07:30:37;;;;;;;40.03;18.40;;;5.30;99.90;;;;;;4999521;28;20488;-96
2020/12/13 07:33:05;;;;;;;41.83;19.40;;;5.40;99.90;;;;;;5000825;28;20515;-95
2020/12/13 07:35:34;;;;;;;37.97;19.30;;;5.30;99.90;;;;;;5009667;28;20456;-95
2020/12/13 07:38:01;;;;;;;38.40;19.90;;;5.30;99.90;;;;;;5027632;28;20453;-96
2020/12/13 07:40:29;;;;;;;41.63;19.90;;;5.30;99.90;;;;;;5006646;28;20472;-95
2020/12/13 07:42:56;;;;;;;44.50;21.10;;;5.30;99.90;;;;;;4998936;28;20453;-95
2020/12/13 07:45:23;;;;;;;43.33;21.57;;;5.30;99.90;;;;;;5000625;28;20865;-95
2020/12/13 07:47:50;;;;;;;44.00;20.63;;;5.30;99.90;;;;;;4998852;28;20757;-95
2020/12/13 07:50:18;;;;;;;40.47;20.33;;;5.40;99.90;;;;;;5004092;28;20507;-95
2020/12/13 07:52:46;;;;;;;41.07;20.23;;;5.50;99.90;;;;;;5020701;28;20959;-95
2020/12/13 07:55:15;;;;;;;41.80;19.90;;;5.50;99.90;;;;;;5019260;28;20465;-95
2020/12/13 07:57:48;;;;;;;38.00;20.27;;;5.50;99.90;;;;;;5021207;28;20460;-94
2020/12/13 08:00:16;;;;;;;36.63;20.17;;;5.30;99.90;;;;;;5016437;28;20955;-95
2020/12/13 08:02:43;;;;;;;45.63;21.07;;;5.40;99.90;;;;;;5002915;28;20464;-95
2020/12/13 08:05:12;;;;;;;41.70;19.83;;;5.30;99.90;;;;;;5004280;28;20484;-94
2020/12/13 08:07:40;;;;;;;41.37;21.20;;;5.40;99.90;;;;;;5007281;28;20486;-94
2020/12/13 08:10:06;;;;;;;39.47;20.00;;;5.50;99.90;;;;;;5005240;28;20745;-94
2020/12/13 08:12:38;;;;;;;39.97;20.00;;;5.50;99.90;;;;;;5003764;28;20974;-95
2020/12/13 08:20:49;;;;;;;41.40;19.67;;;5.70;99.90;;;;;;5010689;28;20564;-96
2020/12/13 08:23:17;;;;;;;40.73;20.50;;;5.70;99.90;;;;;;4998729;28;20466;-96
2020/12/13 08:25:44;;;;;;;42.80;20.10;;;5.80;99.90;;;;;;5005490;28;20457;-96
2020/12/13 08:28:15;;;;;;;47.43;21.83;;;5.70;99.90;;;;;;5017903;28;20781;-96
2020/12/13 08:30:41;;;;;;;44.30;20.93;;;5.70;99.90;;;;;;5013020;28;20489;-96
2020/12/13 08:33:10;;;;;;;41.67;20.77;;;5.70;99.90;;;;;;5000156;28;20983;-96
2020/12/13 08:35:37;;;;;;;39.97;20.73;;;5.70;99.90;;;;;;4998612;28;20466;-96
2020/12/13 08:38:04;;;;;;;41.73;20.63;;;5.70;99.90;;;;;;4982328;28;20877;-96
2020/12/13 08:40:39;;;;;;;39.37;19.70;;;5.70;99.90;;;;;;4999792;28;20458;-95
2020/12/13 08:43:07;;;;;;;43.60;21.20;;;5.80;99.90;;;;;;5000055;28;20449;-95
2020/12/13 08:45:34;;;;;;;42.03;20.77;;;5.70;99.90;;;;;;5002476;28;20448;-95
2020/12/13 08:48:03;;;;;;;39.20;19.27;;;5.70;99.90;;;;;;5021240;28;20457;-96
2020/12/13 08:50:39;;;;;;;43.37;20.53;;;5.70;99.90;;;;;;5018605;28;20545;-96
2020/12/13 08:53:27;;;;;;;39.50;19.73;;;5.70;99.90;;;;;;5003414;28;20460;-95
2020/12/13 08:56:04;;;;;;;41.83;20.47;;;5.60;99.90;;;;;;5003113;28;20453;-96
2020/12/13 08:58:30;;;;;;;42.97;20.00;;;5.70;99.90;;;;;;5002252;28;20453;-96
2020/12/13 09:01:07;;;;;;;38.33;19.43;;;5.70;99.90;;;;;;5003568;28;20453;-96
2020/12/13 09:03:33;;;;;;;39.63;19.47;;;5.70;99.90;;;;;;5008448;28;20468;-96
2020/12/13 09:06:00;;;;;;;38.37;18.90;;;5.70;99.90;;;;;;5022607;28;20460;-96
2020/12/13 09:08:26;;;;;;;37.33;18.90;;;5.70;99.90;;;;;;5023832;28;20466;-95
2020/12/13 09:10:53;;;;;;;42.23;19.00;;;5.70;99.90;;;;;;5021439;28;20491;-96
2020/12/13 09:13:21;;;;;;;39.47;20.20;;;5.80;99.90;;;;;;5020635;28;20461;-96
2020/12/13 09:15:47;;;;;;;38.13;19.13;;;5.80;99.90;;;;;;5006158;28;20454;-96
2020/12/13 09:18:14;;;;;;;38.80;19.57;;;5.70;99.90;;;;;;5003958;28;20465;-96
2020/12/13 09:20:41;;;;;;;39.40;20.60;;;5.80;99.90;;;;;;5003673;28;20465;-95
2020/12/13 09:23:09;;;;;;;37.03;19.43;;;5.80;99.90;;;;;;5003914;28;20556;-96
2020/12/13 09:25:37;;;;;;;45.77;20.50;;;5.80;99.90;;;;;;5003480;28;20461;-96
2020/12/13 09:28:04;;;;;;;37.17;20.27;;;5.80;99.90;;;;;;5002931;28;20457;-96
2020/12/13 09:33:15;;;;;;;38.60;18.87;;;6.00;99.90;;;;;;5001921;28;20461;-96
2020/12/13 09:35:43;;;;;;;43.30;20.33;;;6.00;99.90;;;;;;5003544;28;20480;-96
2020/12/13 09:38:10;;;;;;;41.93;21.13;;;5.90;99.90;;;;;;5001581;28;20458;-96
2020/12/13 09:40:38;;;;;;;42.80;21.50;;;5.90;99.90;;;;;;5002130;28;20561;-94
2020/12/13 09:43:04;;;;;;;41.00;18.93;;;5.80;99.90;;;;;;5009886;28;20441;-94
2020/12/13 09:45:36;;;;;;;42.60;20.87;;;5.80;99.90;;;;;;5020035;28;20444;-93
2020/12/13 09:48:03;;;;;;;38.93;19.50;;;5.70;99.90;;;;;;5019689;28;20528;-95
2020/12/13 09:50:29;;;;;;;40.33;19.83;;;5.80;99.90;;;;;;5019558;28;21026;-96
2020/12/13 09:52:56;;;;;;;42.27;20.80;;;5.80;99.90;;;;;;5025691;28;20449;-96
2020/12/13 09:55:23;;;;;;;41.03;20.00;;;5.90;99.90;;;;;;5019543;28;20457;-96
2020/12/13 09:57:50;;;;;;;41.53;18.77;;;6.00;99.90;;;;;;5001021;28;20465;-96
2020/12/13 10:00:17;;;;;;;40.17;19.67;;;5.90;99.90;;;;;;5005109;28;20452;-96
2020/12/13 10:02:53;;;;;;;41.87;20.13;;;6.00;99.90;;;;;;5022347;28;20450;-96
2020/12/13 10:05:23;;;;;;;40.80;19.70;;;6.10;99.90;;;;;;5023604;28;20472;-95
2020/12/13 10:10:37;;;;;;;40.33;19.50;;;6.10;99.90;;;;;;5021992;28;20492;-95
2020/12/13 10:13:04;;;;;;;38.73;18.83;;;6.10;99.90;;;;;;5023053;28;20463;-95
2020/12/13 10:15:30;;;;;;;40.13;19.40;;;6.10;99.90;;;;;;5017130;28;20457;-94
2020/12/13 10:17:58;;;;;;;42.50;20.87;;;6.10;99.90;;;;;;5003421;28;20453;-94
2020/12/13 10:20:24;;;;;;;40.93;20.10;;;6.10;99.90;;;;;;5007356;28;20510;-96
2020/12/13 10:22:50;;;;;;;46.17;21.30;;;6.00;99.90;;;;;;5013329;28;20461;-93
2020/12/13 10:25:17;;;;;;;42.67;20.27;;;6.00;99.90;;;;;;5007862;28;20449;-94
2020/12/13 10:27:44;;;;;;;41.17;19.30;;;6.10;99.90;;;;;;5005078;28;20453;-95
2020/12/13 10:30:11;;;;;;;43.47;20.53;;;6.10;99.90;;;;;;5001695;28;20532;-95
2020/12/13 10:32:37;;;;;;;44.77;21.67;;;6.10;99.90;;;;;;5001955;28;20473;-94
2020/12/13 10:35:05;;;;;;;43.07;21.03;;;6.10;99.90;;;;;;5005267;28;20477;-94
2020/12/13 10:37:32;;;;;;;45.93;21.83;;;6.10;99.90;;;;;;5006350;28;20473;-93
2020/12/13 10:39:59;;;;;;;47.00;21.77;;;6.10;99.90;;;;;;5006698;28;20864;-95
2020/12/13 10:42:25;;;;;;;45.27;21.87;;;6.10;99.90;;;;;;5023682;28;20820;-95
2020/12/13 10:44:52;;;;;;;43.63;21.47;;;6.10;99.90;;;;;;5031264;28;20463;-95
2020/12/13 10:47:18;;;;;;;45.63;21.27;;;6.10;99.90;;;;;;5021172;28;20566;-95
2020/12/13 10:49:46;;;;;;;47.03;21.33;;;6.10;99.90;;;;;;4996829;28;20513;-96
2020/12/13 10:52:14;;;;;;;44.83;21.20;;;6.00;99.90;;;;;;5007600;28;20485;-96
2020/12/13 10:54:41;;;;;;;46.77;21.50;;;6.10;99.90;;;;;;5005870;28;20637;-96
2020/12/13 10:57:10;;;;;;;49.03;21.97;;;6.10;99.90;;;;;;5004632;28;20468;-96
2020/12/13 10:59:37;;;;;;;45.47;21.20;;;6.10;99.90;;;;;;5015352;28;20561;-95
2020/12/13 11:02:04;;;;;;;49.40;22.73;;;6.00;99.90;;;;;;5003324;28;20461;-96
2020/12/13 11:04:31;;;;;;;48.13;21.90;;;6.10;99.90;;;;;;5002937;28;20529;-96
2020/12/13 11:06:57;;;;;;;50.57;22.83;;;6.10;99.90;;;;;;5004982;28;20490;-96
2020/12/13 11:09:25;;;;;;;50.03;22.03;;;6.20;99.90;;;;;;5004796;28;20500;-94
2020/12/13 11:11:54;;;;;;;49.80;22.63;;;6.10;99.90;;;;;;5006771;28;20457;-96
2020/12/13 11:14:20;;;;;;;52.70;23.70;;;6.20;99.90;;;;;;5017378;28;20461;-96
2020/12/13 11:16:47;;;;;;;45.37;21.73;;;6.20;99.90;;;;;;5013166;28;20460;-93
2020/12/13 11:19:13;;;;;;;45.83;22.70;;;6.30;99.90;;;;;;5007006;28;20523;-87
2020/12/13 11:21:44;;;;;;;50.97;22.90;;;6.40;99.90;;;;;;5002284;28;20462;-95
2020/12/13 11:24:12;;;;;;;45.00;21.63;;;6.40;99.90;;;;;;4984993;28;20461;-94
2020/12/13 11:26:42;;;;;;;54.73;22.60;;;6.40;99.90;;;;;;5003186;28;20454;-94
2020/12/13 11:29:08;;;;;;;49.80;22.27;;;6.30;99.90;;;;;;5005251;28;20489;-94
2020/12/13 11:31:35;;;;;;;52.07;23.33;;;6.20;99.90;;;;;;5014822;28;20878;-95
2020/12/13 11:34:02;;;;;;;49.30;22.47;;;6.20;99.90;;;;;;5009940;28;20805;-95
2020/12/13 11:36:28;;;;;;;44.80;22.53;;;6.30;99.90;;;;;;5005714;28;20450;-93
2020/12/13 11:38:55;;;;;;;51.47;23.17;;;6.30;99.90;;;;;;5008006;28;20481;-96
2020/12/13 11:41:26;;;;;;;44.27;21.23;;;6.30;99.90;;;;;;5016205;28;20439;-95
2020/12/13 11:43:55;;;;;;;50.20;23.03;;;6.40;99.90;;;;;;5016149;28;20475;-94
2020/12/13 11:46:24;;;;;;;44.23;22.87;;;6.50;99.90;;;;;;5016925;28;20434;-95
2020/12/13 11:48:51;;;;;;;47.63;22.03;;;6.60;99.90;;;;;;5029405;28;20460;-94
2020/12/13 11:51:18;;;;;;;51.73;22.50;;;6.70;99.90;;;;;;5148442;23;20484;-95
2020/12/13 11:56:35;;;;;;;47.53;22.17;;;6.60;99.90;;;;;;5025646;28;20438;-93
2020/12/13 11:59:05;;;;;;;43.60;20.87;;;6.60;99.90;;;;;;5031584;28;20476;-94
2020/12/13 12:01:31;;;;;;;50.47;23.50;;;6.50;99.90;;;;;;5026121;28;20208;-96
2020/12/13 12:03:58;;;;;;;48.33;22.17;;;6.50;99.90;;;;;;5026487;28;20464;-96
2020/12/13 12:06:26;;;;;;;50.13;23.17;;;6.50;99.90;;;;;;5007156;28;20954;-96
2020/12/13 12:08:57;;;;;;;51.17;22.83;;;6.50;99.90;;;;;;5006198;28;20457;-96
2020/12/13 12:11:29;;;;;;;50.47;22.90;;;6.60;99.90;;;;;;5011008;28;20454;-96
2020/12/13 12:13:55;;;;;;;51.53;23.00;;;6.60;99.90;;;;;;5011985;28;20510;-96
2020/12/13 12:16:27;;;;;;;49.67;24.63;;;6.60;99.90;;;;;;5022676;28;20465;-96
2020/12/13 12:18:53;;;;;;;44.60;21.17;;;6.60;99.90;;;;;;5021435;28;20680;-96
2020/12/13 12:21:23;;;;;;;42.40;21.17;;;6.70;99.90;;;;;;5022921;28;20464;-95
2020/12/13 12:23:49;;;;;;;48.90;22.83;;;6.70;99.90;;;;;;5027423;28;20231;-96
2020/12/13 12:26:27;;;;;;;48.43;23.20;;;6.70;99.90;;;;;;5028524;28;20457;-95
2020/12/13 12:28:53;;;;;;;49.73;22.67;;;6.70;99.90;;;;;;5014225;28;20450;-88
2020/12/13 12:31:20;;;;;;;50.63;22.87;;;6.70;99.90;;;;;;5000699;28;20237;-87
2020/12/13 12:33:47;;;;;;;47.90;21.87;;;6.70;99.90;;;;;;5013903;28;20203;-86
2020/12/13 12:36:15;;;;;;;50.67;21.70;;;6.70;99.90;;;;;;5003019;28;20555;-86
2020/12/13 12:38:41;;;;;;;48.63;22.23;;;6.60;99.90;;;;;;5004104;28;20480;-85
2020/12/13 12:41:11;;;;;;;40.43;21.03;;;6.60;99.90;;;;;;5020494;28;20462;-85
2020/12/13 12:43:46;;;;;;;49.67;23.10;;;6.40;99.90;;;;;;5006530;28;20458;-91
2020/12/13 12:46:13;;;;;;;49.23;21.87;;;6.40;99.90;;;;;;5020764;28;20464;-88
2020/12/13 12:48:39;;;;;;;47.60;22.13;;;6.40;99.90;;;;;;5012815;28;20457;-87
2020/12/13 12:51:12;;;;;;;46.73;21.87;;;6.40;99.90;;;;;;5006312;28;20607;-85
2020/12/13 12:53:38;;;;;;;46.73;22.20;;;6.50;99.90;;;;;;5019437;28;20235;-86
2020/12/13 12:56:06;;;;;;;47.40;22.80;;;6.50;99.90;;;;;;5020992;28;20472;-87
2020/12/13 12:58:43;;;;;;;47.93;22.03;;;6.50;99.90;;;;;;5012148;28;20453;-87
2020/12/13 13:01:14;;;;;;;49.47;22.13;;;6.60;99.90;;;;;;5026355;28;20457;-88
2020/12/13 13:03:47;;;;;;;47.33;20.73;;;6.60;99.90;;;;;;5018130;28;20212;-87
2020/12/13 13:11:58;;;;;;;50.87;21.23;;;6.50;99.90;;;;;;5017373;28;20193;-89
2020/12/13 13:14:25;;;;;;;49.90;21.57;;;6.50;99.90;;;;;;5003123;28;20190;-91
2020/12/13 13:17:01;;;;;;;46.73;22.00;;;6.40;99.90;;;;;;5036871;28;20487;-91
2020/12/13 13:22:27;;;;;;;45.80;21.27;;;6.40;99.90;;;;;;5005330;28;20198;-92
2020/12/13 13:24:56;;;;;;;44.23;20.00;;;6.50;99.90;;;;;;5018544;28;20280;-91
2020/12/13 13:27:22;;;;;;;46.00;22.23;;;6.50;99.90;;;;;;5013591;28;20483;-92
2020/12/13 13:32:32;;;;;;;43.90;21.83;;;6.40;99.90;;;;;;5038077;28;20446;-91
2020/12/13 13:34:59;;;;;;;45.13;21.87;;;6.50;99.90;;;;;;5038414;28;20480;-92
2020/12/13 13:37:41;;;;;;;46.40;22.47;;;6.60;99.90;;;;;;5023563;28;20533;-88
2020/12/13 13:40:37;;;;;;;47.70;22.13;;;6.60;99.90;;;;;;5003136;28;20493;-87
2020/12/13 13:43:06;;;;;;;48.03;22.80;;;6.70;99.90;;;;;;5017418;28;20465;-87
2020/12/13 13:51:28;;;;;;;50.93;22.50;;;6.60;99.90;;;;;;5018720;28;20484;-88
2020/12/13 13:54:33;;;;;;;44.90;21.70;;;6.60;99.90;;;;;;5017765;28;20442;-86
2020/12/13 13:57:05;;;;;;;50.90;23.70;;;6.60;99.90;;;;;;5000089;28;20192;-92
2020/12/13 14:02:24;;;;;;;49.57;23.73;;;6.70;99.90;;;;;;5017877;28;20263;-87
2020/12/13 14:04:53;;;;;;;46.73;21.73;;;6.80;99.90;;;;;;5022784;28;20187;-87
2020/12/13 14:07:41;;;;;;;50.93;22.27;;;6.90;99.90;;;;;;5036408;28;20468;-86
2020/12/13 14:10:16;;;;;;;47.63;22.07;;;7.00;99.90;;;;;;5019472;28;20250;-87
2020/12/13 14:12:46;;;;;;;48.10;22.10;;;7.00;99.90;;;;;;5035617;28;20217;-86
2020/12/13 14:15:16;;;;;;;47.93;22.33;;;7.10;99.90;;;;;;5031615;28;20208;-90
2020/12/13 14:17:45;;;;;;;47.33;21.33;;;7.10;99.90;;;;;;4999723;28;20216;-85
2020/12/13 14:20:12;;;;;;;45.90;21.53;;;7.10;99.90;;;;;;4999357;28;20251;-84
2020/12/13 14:22:39;;;;;;;44.73;21.70;;;7.10;99.90;;;;;;4989241;28;20220;-84
2020/12/13 14:28:58;;;;;;;43.97;21.83;;;7.10;99.90;;;;;;5015145;28;20255;-83
2020/12/13 14:31:25;;;;;;;47.53;22.00;;;7.10;99.90;;;;;;5025321;28;20225;-86
2020/12/13 14:33:51;;;;;;;49.10;20.70;;;6.90;99.90;;;;;;4982533;28;20215;-85
2020/12/13 14:36:37;;;;;;;47.23;21.67;;;6.90;99.90;;;;;;5008583;28;20212;-89
